Terminal Aerodrome Forecast
Issued by NWS

Home | Current Version | Previous Version | Graphics & Text | Print | Product List | Glossary On
Versions: 1 2 3 4 5 6 7 8 9 10 11 12
000
FTUS43 KICT 232321
TAFSLN
TAF
KSLN 232321Z 2400/2424 33014G20KT P6SM BKN100
     FM240500 30014KT P6SM BKN040
     FM241500 31018G25KT P6SM SKC=

USA.gov is the U.S. government's official web portal to all federal, state and local government web resources and services.